createdAt,value
2018-09-23T00:00:17.278Z,11.84
2018-09-23T00:02:45.735Z,11.81
2018-09-23T00:05:14.178Z,11.82
2018-09-23T00:07:42.599Z,11.81
2018-09-23T00:10:11.013Z,11.84
2018-09-23T00:12:39.417Z,11.82
2018-09-23T00:15:08.012Z,11.58
2018-09-23T00:17:36.428Z,11.78
2018-09-23T00:20:04.988Z,11.78
2018-09-23T00:22:33.443Z,11.74
2018-09-23T00:25:02.008Z,11.73
2018-09-23T00:27:30.430Z,11.67
2018-09-23T00:29:58.829Z,11.64
2018-09-23T00:32:27.275Z,11.63
2018-09-23T00:34:55.688Z,11.61
2018-09-23T00:37:24.091Z,11.62
2018-09-23T00:39:52.503Z,11.63
2018-09-23T00:42:20.889Z,11.64
2018-09-23T00:44:49.358Z,11.62
2018-09-23T00:47:17.726Z,11.67
2018-09-23T00:49:46.118Z,11.68
2018-09-23T00:52:14.560Z,11.69
2018-09-23T00:54:42.985Z,11.66
2018-09-23T00:57:11.436Z,11.65
2018-09-23T00:59:39.896Z,11.67
2018-09-23T01:02:08.400Z,11.71
2018-09-23T01:04:36.849Z,11.73
2018-09-23T01:07:05.291Z,11.71
2018-09-23T01:09:33.730Z,11.66
2018-09-23T01:12:02.168Z,11.65
2018-09-23T01:14:30.557Z,11.66
2018-09-23T01:16:58.949Z,11.67
2018-09-23T01:19:27.461Z,11.68
2018-09-23T01:21:55.917Z,11.65
2018-09-23T01:24:24.343Z,11.68
2018-09-23T01:26:52.751Z,11.70
2018-09-23T01:29:21.156Z,11.65
2018-09-23T01:31:49.547Z,11.64
2018-09-23T01:34:18.012Z,11.66
2018-09-23T01:36:46.464Z,11.65
2018-09-23T01:39:14.889Z,11.67
2018-09-23T01:41:43.316Z,11.67
2018-09-23T01:44:11.711Z,11.70
2018-09-23T01:46:40.119Z,11.69
2018-09-23T01:49:08.536Z,11.69
2018-09-23T01:51:36.961Z,11.69
2018-09-23T01:54:05.367Z,11.69
2018-09-23T01:56:33.768Z,11.68
2018-09-23T01:59:02.195Z,11.68
2018-09-23T02:01:30.601Z,11.70
2018-09-23T02:03:59.009Z,11.71
2018-09-23T02:06:27.455Z,11.73
2018-09-23T02:08:55.876Z,11.74
2018-09-23T02:11:24.447Z,11.74
2018-09-23T02:13:52.881Z,11.76
2018-09-23T02:16:21.300Z,11.79
2018-09-23T02:18:49.717Z,11.75
2018-09-23T02:21:18.246Z,11.77
2018-09-23T02:23:46.561Z,11.76
2018-09-23T02:26:14.983Z,11.75
2018-09-23T02:28:43.384Z,11.73
2018-09-23T02:31:11.828Z,11.70
2018-09-23T02:33:40.271Z,11.70
2018-09-23T02:36:08.669Z,11.73
2018-09-23T02:38:37.084Z,11.74
2018-09-23T02:41:05.537Z,11.74
2018-09-23T02:43:33.961Z,11.72
2018-09-23T02:46:02.647Z,11.73
2018-09-23T02:48:31.195Z,11.78
2018-09-23T02:50:59.696Z,11.80
2018-09-23T02:53:28.206Z,11.84
2018-09-23T02:55:56.617Z,11.84
2018-09-23T02:58:25.084Z,11.82
2018-09-23T03:00:53.517Z,11.82
2018-09-23T03:03:21.934Z,11.83
2018-09-23T03:05:50.380Z,11.84
2018-09-23T03:08:18.858Z,11.85
2018-09-23T03:10:47.626Z,11.83
2018-09-23T03:13:16.045Z,11.84
2018-09-23T03:15:44.519Z,11.85
2018-09-23T03:18:12.893Z,11.85
2018-09-23T03:20:41.338Z,11.83
2018-09-23T03:23:09.729Z,11.82
2018-09-23T03:25:38.116Z,11.82
2018-09-23T03:28:06.643Z,11.84
2018-09-23T03:30:35.132Z,11.82
2018-09-23T03:33:03.548Z,11.83
2018-09-23T03:35:32.085Z,11.82
2018-09-23T03:38:00.511Z,11.84
2018-09-23T03:40:29.176Z,11.84
2018-09-23T03:42:57.669Z,11.84
2018-09-23T03:45:26.059Z,11.85
2018-09-23T03:47:54.494Z,11.86
2018-09-23T03:50:22.898Z,11.81
2018-09-23T03:52:51.302Z,11.81
2018-09-23T03:55:19.709Z,11.82
2018-09-23T03:57:48.202Z,11.85
2018-09-23T04:00:16.562Z,11.86
2018-09-23T04:02:45.037Z,11.86
2018-09-23T04:05:13.461Z,11.85
2018-09-23T04:07:41.860Z,11.83
2018-09-23T04:10:10.281Z,11.83
2018-09-23T04:12:38.688Z,11.83
2018-09-23T04:15:07.189Z,11.85
2018-09-23T04:17:35.613Z,11.85
2018-09-23T04:20:04.152Z,11.83
2018-09-23T04:22:36.713Z,11.83
2018-09-23T04:25:05.245Z,11.85
2018-09-23T04:27:33.668Z,11.85
2018-09-23T04:30:02.057Z,11.86
2018-09-23T04:32:30.522Z,11.86
2018-09-23T04:34:58.942Z,11.88
2018-09-23T04:37:27.348Z,11.85
2018-09-23T04:39:55.783Z,11.86
2018-09-23T04:42:24.244Z,11.88
2018-09-23T04:44:52.700Z,11.85
2018-09-23T04:47:21.074Z,11.85
2018-09-23T04:49:49.516Z,11.87
2018-09-23T04:52:17.953Z,11.86
2018-09-23T04:54:46.346Z,11.87
2018-09-23T04:57:14.774Z,11.87
2018-09-23T04:59:43.257Z,11.89
2018-09-23T05:02:11.709Z,11.88
2018-09-23T05:04:40.137Z,11.88
2018-09-23T05:07:08.508Z,11.88
2018-09-23T05:09:36.948Z,11.88
2018-09-23T05:12:05.423Z,11.88
2018-09-23T05:14:33.850Z,11.88
2018-09-23T05:17:02.439Z,11.88
2018-09-23T05:19:30.855Z,11.90
2018-09-23T05:21:59.319Z,11.90
2018-09-23T05:24:27.876Z,11.90
2018-09-23T05:26:56.325Z,11.91
2018-09-23T05:29:24.840Z,11.90
2018-09-23T05:31:53.250Z,11.89
2018-09-23T05:34:21.645Z,11.90
2018-09-23T05:36:50.074Z,11.91
2018-09-23T05:39:18.452Z,11.91
2018-09-23T05:41:46.897Z,11.89
2018-09-23T05:44:15.290Z,11.88
2018-09-23T05:46:43.727Z,11.90
2018-09-23T05:49:12.117Z,11.90
2018-09-23T05:51:40.542Z,11.91
2018-09-23T05:54:08.945Z,11.91
2018-09-23T05:56:37.364Z,11.90
2018-09-23T05:59:05.806Z,11.91
2018-09-23T06:01:34.221Z,11.90
2018-09-23T06:04:02.687Z,11.92
2018-09-23T06:06:31.130Z,11.92
2018-09-23T06:08:59.585Z,11.93
2018-09-23T06:11:28.001Z,11.92
2018-09-23T06:13:56.470Z,11.93
2018-09-23T06:16:24.976Z,11.92
2018-09-23T06:18:53.470Z,11.90
2018-09-23T06:21:21.908Z,11.89
2018-09-23T06:23:50.379Z,11.89
2018-09-23T06:26:18.753Z,11.91
2018-09-23T06:28:47.230Z,11.92
2018-09-23T06:31:15.724Z,11.92
2018-09-23T06:33:44.489Z,11.94
2018-09-23T06:36:12.936Z,11.95
2018-09-23T06:38:41.566Z,11.98
2018-09-23T06:41:10.003Z,11.99
2018-09-23T06:43:38.639Z,12.01
2018-09-23T06:46:07.115Z,12.00
2018-09-23T06:48:35.616Z,12.01
2018-09-23T06:51:04.061Z,12.01
2018-09-23T06:53:32.560Z,12.05
2018-09-23T06:56:01.040Z,12.07
2018-09-23T06:58:29.736Z,12.08
2018-09-23T07:00:58.182Z,12.01
2018-09-23T07:03:26.649Z,12.03
2018-09-23T07:05:55.790Z,12.08
2018-09-23T07:08:24.248Z,12.10
2018-09-23T07:10:52.666Z,12.11
2018-09-23T07:13:21.149Z,12.10
2018-09-23T07:15:49.658Z,12.09
2018-09-23T07:18:18.134Z,12.07
2018-09-23T07:20:46.546Z,12.07
2018-09-23T07:23:14.997Z,12.11
2018-09-23T07:25:43.409Z,12.10
2018-09-23T07:28:11.809Z,12.11
2018-09-23T07:30:40.303Z,12.12
2018-09-23T07:33:08.746Z,12.16
2018-09-23T07:35:37.177Z,12.17
2018-09-23T07:38:05.630Z,12.16
2018-09-23T07:40:34.036Z,12.20
2018-09-23T07:43:02.428Z,12.21
2018-09-23T07:45:31.024Z,12.24
2018-09-23T07:47:59.985Z,12.28
2018-09-23T07:50:28.469Z,12.31
2018-09-23T07:52:56.940Z,12.34
2018-09-23T07:55:25.417Z,12.40
2018-09-23T07:57:53.856Z,12.43
2018-09-23T08:00:22.296Z,12.46
2018-09-23T08:02:50.712Z,12.46
2018-09-23T08:05:19.187Z,12.45
2018-09-23T08:07:47.660Z,12.43
2018-09-23T08:10:16.148Z,12.43
2018-09-23T08:12:45.025Z,12.46
2018-09-23T08:15:13.453Z,12.49
2018-09-23T08:17:42.139Z,12.50
2018-09-23T08:20:10.660Z,12.51
2018-09-23T08:22:39.031Z,12.53
2018-09-23T08:25:07.670Z,12.54
2018-09-23T08:27:36.105Z,12.54
2018-09-23T08:30:04.755Z,12.59
2018-09-23T08:32:33.257Z,12.59
2018-09-23T08:35:02.877Z,12.63
2018-09-23T08:37:31.539Z,12.67
2018-09-23T08:40:00.317Z,12.70
2018-09-23T08:42:28.854Z,12.74
2018-09-23T08:44:57.495Z,12.76
2018-09-23T08:47:26.185Z,12.79
2018-09-23T08:49:54.692Z,12.82
2018-09-23T08:52:23.280Z,12.82
2018-09-23T08:54:51.747Z,12.77
2018-09-23T08:57:20.279Z,12.76
2018-09-23T08:59:48.739Z,12.72
2018-09-23T09:02:17.565Z,12.70
2018-09-23T09:04:46.124Z,12.73
2018-09-23T09:07:15.092Z,12.75
2018-09-23T09:09:43.744Z,12.77
2018-09-23T09:12:12.602Z,12.80
2018-09-23T09:14:41.084Z,12.81
2018-09-23T09:17:09.640Z,12.88
2018-09-23T09:19:38.169Z,12.91
2018-09-23T09:22:06.662Z,12.89
2018-09-23T09:24:35.139Z,12.83
2018-09-23T09:27:03.690Z,12.77
2018-09-23T09:29:32.175Z,12.79
2018-09-23T09:32:00.644Z,12.75
2018-09-23T09:34:29.101Z,12.73
2018-09-23T09:36:57.520Z,12.74
2018-09-23T09:39:26.021Z,12.77
2018-09-23T09:41:54.536Z,12.80
2018-09-23T09:44:23.441Z,12.86
2018-09-23T09:46:51.896Z,12.87
2018-09-23T09:49:21.169Z,12.90
2018-09-23T09:51:50.050Z,12.95
2018-09-23T09:54:18.770Z,12.94
2018-09-23T09:56:47.260Z,12.97
2018-09-23T09:59:15.790Z,12.98
2018-09-23T10:01:44.357Z,12.97
2018-09-23T10:04:12.996Z,12.97
2018-09-23T10:06:41.342Z,12.73
2018-09-23T10:09:11.049Z,12.97
2018-09-23T10:11:39.899Z,12.97
2018-09-23T10:14:08.965Z,12.92
2018-09-23T10:16:37.496Z,12.97
2018-09-23T10:19:06.026Z,12.94
2018-09-23T10:21:34.518Z,12.92
2018-09-23T10:24:03.302Z,12.91
2018-09-23T10:26:31.823Z,12.92
2018-09-23T10:29:01.201Z,12.94
2018-09-23T10:31:29.751Z,12.91
2018-09-23T10:33:58.139Z,12.82
2018-09-23T10:36:26.974Z,12.80
2018-09-23T10:38:56.982Z,12.74
2018-09-23T10:41:25.607Z,12.65
2018-09-23T10:43:54.087Z,12.65
2018-09-23T10:46:22.499Z,12.69
2018-09-23T10:48:51.121Z,12.52
2018-09-23T10:51:19.596Z,12.51
2018-09-23T10:53:48.088Z,12.48
2018-09-23T10:56:16.549Z,12.49
2018-09-23T10:58:45.047Z,12.42
2018-09-23T11:01:13.469Z,12.33
2018-09-23T11:03:41.970Z,12.31
2018-09-23T11:06:10.599Z,12.37
2018-09-23T11:08:39.042Z,12.40
2018-09-23T11:11:07.688Z,12.43
2018-09-23T11:13:36.169Z,12.41
2018-09-23T11:16:04.740Z,12.45
2018-09-23T11:18:33.180Z,12.46
2018-09-23T11:21:01.630Z,12.50
2018-09-23T11:23:30.101Z,12.51
2018-09-23T11:25:58.533Z,12.38
2018-09-23T11:28:26.922Z,12.49
2018-09-23T11:30:55.405Z,12.59
2018-09-23T11:33:23.887Z,12.61
2018-09-23T11:35:52.342Z,12.63
2018-09-23T11:38:20.869Z,12.27
2018-09-23T11:40:49.381Z,12.52
2018-09-23T11:43:17.885Z,12.62
2018-09-23T11:45:46.317Z,12.65
2018-09-23T11:48:14.778Z,12.69
2018-09-23T11:50:43.172Z,12.61
2018-09-23T11:53:11.624Z,12.54
2018-09-23T11:55:40.090Z,12.46
2018-09-23T11:58:09.323Z,12.32
2018-09-23T12:00:37.825Z,12.32
2018-09-23T12:03:06.450Z,12.24
2018-09-23T12:05:34.871Z,12.16
2018-09-23T12:08:03.343Z,12.15
2018-09-23T12:10:31.866Z,12.20
2018-09-23T12:13:00.573Z,12.09
2018-09-23T12:15:29.108Z,12.07
2018-09-23T12:17:58.501Z,11.97
2018-09-23T12:20:27.014Z,11.93
2018-09-23T12:22:56.434Z,11.91
2018-09-23T12:25:24.894Z,11.88
2018-09-23T12:27:53.293Z,11.80
2018-09-23T12:30:21.776Z,11.84
2018-09-23T12:32:50.396Z,11.83
2018-09-23T12:35:18.805Z,11.80
2018-09-23T12:37:47.237Z,11.71
2018-09-23T12:40:15.748Z,11.66
2018-09-23T12:42:44.220Z,11.66
2018-09-23T12:45:12.745Z,11.58
2018-09-23T12:47:41.128Z,11.65
2018-09-23T12:50:10.048Z,11.60
2018-09-23T12:52:38.533Z,11.62
2018-09-23T12:55:07.005Z,11.59
2018-09-23T12:57:35.443Z,11.58
2018-09-23T13:00:03.993Z,11.50
2018-09-23T13:02:32.526Z,11.42
2018-09-23T13:05:00.927Z,11.26
2018-09-23T13:07:30.369Z,11.24
2018-09-23T13:09:58.797Z,11.29
2018-09-23T13:12:27.247Z,11.29
2018-09-23T13:14:55.734Z,11.29
2018-09-23T13:17:24.207Z,11.30
2018-09-23T13:19:52.673Z,11.28
2018-09-23T13:22:21.078Z,11.25
2018-09-23T13:24:49.572Z,11.20
2018-09-23T13:27:18.049Z,11.26
2018-09-23T13:29:46.606Z,11.26
2018-09-23T13:32:15.596Z,11.29
2018-09-23T13:34:44.044Z,11.29
2018-09-23T13:37:12.594Z,11.33
2018-09-23T13:39:41.057Z,11.43
2018-09-23T13:42:09.517Z,11.41
2018-09-23T13:44:38.908Z,11.38
2018-09-23T13:47:07.340Z,11.45
2018-09-23T13:49:35.791Z,11.37
2018-09-23T13:52:04.256Z,11.28
2018-09-23T13:54:32.730Z,11.15
2018-09-23T13:57:01.175Z,11.19
2018-09-23T13:59:29.618Z,11.12
2018-09-23T14:01:58.124Z,11.18
2018-09-23T14:04:26.557Z,11.08
2018-09-23T14:06:55.041Z,11.10
2018-09-23T14:09:23.475Z,11.19
2018-09-23T14:11:51.867Z,10.92
2018-09-23T14:14:20.385Z,11.05
2018-09-23T14:16:48.819Z,10.96
2018-09-23T14:19:17.292Z,10.98
2018-09-23T14:21:45.774Z,10.72
2018-09-23T14:24:14.229Z,10.96
2018-09-23T14:26:42.724Z,10.93
2018-09-23T14:29:11.121Z,10.98
2018-09-23T14:31:39.585Z,10.97
2018-09-23T14:34:08.004Z,10.97
2018-09-23T14:36:36.531Z,11.00
2018-09-23T14:39:07.181Z,11.04
2018-09-23T14:41:35.754Z,10.98
2018-09-23T14:44:04.224Z,10.95
2018-09-23T14:46:32.807Z,10.90
2018-09-23T14:49:01.322Z,10.88
2018-09-23T14:51:29.930Z,10.78
2018-09-23T14:53:58.426Z,10.83
2018-09-23T14:56:26.859Z,10.82
2018-09-23T14:58:55.376Z,10.81
2018-09-23T15:01:23.765Z,10.79
2018-09-23T15:03:52.228Z,10.71
2018-09-23T15:06:20.719Z,10.67
2018-09-23T15:08:49.196Z,10.73
2018-09-23T15:11:18.436Z,10.76
2018-09-23T15:13:46.904Z,10.74
2018-09-23T15:16:15.387Z,10.66
2018-09-23T15:18:43.897Z,10.74
2018-09-23T15:21:12.385Z,10.72
2018-09-23T15:23:40.830Z,10.76
2018-09-23T15:26:09.326Z,10.70
2018-09-23T15:28:37.764Z,10.70
2018-09-23T15:31:06.296Z,10.82
2018-09-23T15:33:34.732Z,10.63
2018-09-23T15:36:03.224Z,10.81
2018-09-23T15:38:31.649Z,10.68
2018-09-23T15:41:00.431Z,10.77
2018-09-23T15:43:28.874Z,10.72
2018-09-23T15:45:57.299Z,10.67
2018-09-23T15:48:25.733Z,10.57
2018-09-23T15:50:54.264Z,10.67
2018-09-23T15:53:22.795Z,10.62
2018-09-23T15:55:51.289Z,10.62
2018-09-23T15:58:19.863Z,10.57
2018-09-23T16:00:48.316Z,10.40
2018-09-23T16:03:16.792Z,10.39
2018-09-23T16:05:45.267Z,10.25
2018-09-23T16:08:13.727Z,10.32
2018-09-23T16:10:42.231Z,10.22
2018-09-23T16:13:10.737Z,10.19
2018-09-23T16:15:39.331Z,10.14
2018-09-23T16:18:07.821Z,10.13
2018-09-23T16:20:36.569Z,10.17
2018-09-23T16:23:05.185Z,10.07
2018-09-23T16:25:33.902Z,10.02
2018-09-23T16:28:02.346Z,9.97
2018-09-23T16:30:31.449Z,9.93
2018-09-23T16:32:59.925Z,9.91
2018-09-23T16:35:28.485Z,9.86
2018-09-23T16:37:57.301Z,9.83
2018-09-23T16:40:25.810Z,9.85
2018-09-23T16:42:54.275Z,9.83
2018-09-23T16:45:22.786Z,9.91
2018-09-23T16:47:51.420Z,9.88
2018-09-23T16:50:20.635Z,9.74
2018-09-23T16:52:49.076Z,9.72
2018-09-23T16:55:18.192Z,9.66
2018-09-23T16:57:46.717Z,9.60
2018-09-23T17:00:15.400Z,9.63
2018-09-23T17:02:43.933Z,9.63
2018-09-23T17:05:12.374Z,9.55
2018-09-23T17:07:40.814Z,9.52
2018-09-23T17:10:09.285Z,9.49
2018-09-23T17:12:37.701Z,9.52
2018-09-23T17:15:06.279Z,9.52
2018-09-23T17:17:34.704Z,9.67
2018-09-23T17:20:03.117Z,9.60
2018-09-23T17:22:31.583Z,9.49
2018-09-23T17:25:00.345Z,9.43
2018-09-23T17:27:28.792Z,9.48
2018-09-23T17:29:57.272Z,9.40
2018-09-23T17:32:25.685Z,9.42
2018-09-23T17:34:54.182Z,9.38
2018-09-23T17:37:22.621Z,9.35
2018-09-23T17:39:51.078Z,9.41
2018-09-23T17:42:19.559Z,9.42
2018-09-23T17:44:48.021Z,9.49
2018-09-23T17:47:16.443Z,9.41
2018-09-23T17:49:44.869Z,9.47
2018-09-23T17:52:13.364Z,9.50
2018-09-23T17:54:41.880Z,9.47
2018-09-23T17:57:10.309Z,9.40
2018-09-23T17:59:38.780Z,9.45
2018-09-23T18:02:07.401Z,9.32
2018-09-23T18:04:37.569Z,9.31
2018-09-23T18:07:06.149Z,9.29
2018-09-23T18:09:34.615Z,9.30
2018-09-23T18:12:03.085Z,9.32
2018-09-23T18:14:31.563Z,9.32
2018-09-23T18:17:00.057Z,9.31
2018-09-23T18:19:28.500Z,9.33
2018-09-23T18:21:56.917Z,9.38
2018-09-23T18:24:25.379Z,9.40
2018-09-23T18:26:53.861Z,9.41
2018-09-23T18:29:22.295Z,9.35
2018-09-23T18:31:50.773Z,9.34
2018-09-23T18:34:19.213Z,9.33
2018-09-23T18:36:48.062Z,9.33
2018-09-23T18:39:16.472Z,9.30
2018-09-23T18:41:44.947Z,9.28
2018-09-23T18:44:13.393Z,9.32
2018-09-23T18:46:41.865Z,9.33
2018-09-23T18:49:10.411Z,9.29
2018-09-23T18:51:38.846Z,9.29
2018-09-23T18:54:12.477Z,9.25
2018-09-23T18:56:40.962Z,9.27
2018-09-23T18:59:09.497Z,9.24
2018-09-23T19:01:37.976Z,9.26
2018-09-23T19:04:06.438Z,9.26
2018-09-23T19:06:34.947Z,9.25
2018-09-23T19:09:03.579Z,9.20
2018-09-23T19:11:32.013Z,9.21
2018-09-23T19:14:00.501Z,9.20
2018-09-23T19:16:30.058Z,9.14
2018-09-23T19:18:59.017Z,9.15
2018-09-23T19:21:28.195Z,9.15
2018-09-23T19:23:57.162Z,9.15
2018-09-23T19:26:25.756Z,9.15
2018-09-23T19:28:54.241Z,9.19
2018-09-23T19:31:22.650Z,9.19
2018-09-23T19:33:51.123Z,9.16
2018-09-23T19:36:19.611Z,9.18
2018-09-23T19:38:48.063Z,9.17
2018-09-23T19:41:16.502Z,9.19
2018-09-23T19:43:44.938Z,9.16
2018-09-23T19:46:13.478Z,9.16
2018-09-23T19:48:41.997Z,9.11
2018-09-23T19:51:10.459Z,9.08
2018-09-23T19:53:38.890Z,9.09
2018-09-23T19:56:07.354Z,9.08
2018-09-23T19:58:36.064Z,9.13
2018-09-23T20:01:04.501Z,9.18
2018-09-23T20:03:32.965Z,9.17
2018-09-23T20:06:03.370Z,9.16
2018-09-23T20:08:31.829Z,9.16
2018-09-23T20:11:00.324Z,9.17
2018-09-23T20:13:28.848Z,9.16
2018-09-23T20:15:57.358Z,9.15
2018-09-23T20:18:25.838Z,9.16
2018-09-23T20:20:54.324Z,9.16
2018-09-23T20:23:22.756Z,9.18
2018-09-23T20:25:51.201Z,9.13
2018-09-23T20:28:19.660Z,9.18
2018-09-23T20:30:48.132Z,9.16
2018-09-23T20:33:16.569Z,9.11
2018-09-23T20:35:44.978Z,9.09
2018-09-23T20:38:13.461Z,9.07
2018-09-23T20:40:41.848Z,9.08
2018-09-23T20:43:10.265Z,9.08
2018-09-23T20:45:38.662Z,9.11
2018-09-23T20:48:07.074Z,9.10
2018-09-23T20:50:35.492Z,9.12
2018-09-23T20:53:03.946Z,9.13
2018-09-23T20:55:32.365Z,9.13
2018-09-23T20:58:00.730Z,9.13
2018-09-23T21:00:29.204Z,9.08
2018-09-23T21:02:57.658Z,9.10
2018-09-23T21:05:26.143Z,9.13
2018-09-23T21:07:54.588Z,9.09
2018-09-23T21:10:23.101Z,9.10
2018-09-23T21:12:51.460Z,9.09
2018-09-23T21:15:19.919Z,9.10
2018-09-23T21:17:48.321Z,9.09
2018-09-23T21:20:16.773Z,9.09
2018-09-23T21:22:45.157Z,9.11
2018-09-23T21:25:13.566Z,9.13
2018-09-23T21:27:42.047Z,9.12
2018-09-23T21:30:10.462Z,9.10
2018-09-23T21:32:38.911Z,9.14
2018-09-23T21:35:07.341Z,9.07
2018-09-23T21:37:35.743Z,9.09
2018-09-23T21:40:04.232Z,9.08
2018-09-23T21:42:32.707Z,9.11
2018-09-23T21:45:01.224Z,9.07
2018-09-23T21:47:29.672Z,9.08
2018-09-23T21:49:58.134Z,9.04
2018-09-23T21:52:26.532Z,8.97
2018-09-23T21:54:55.056Z,9.02
2018-09-23T21:57:23.458Z,9.02
2018-09-23T21:59:51.891Z,9.01
2018-09-23T22:02:20.285Z,8.99
2018-09-23T22:04:48.774Z,9.00
2018-09-23T22:07:17.176Z,9.02
2018-09-23T22:09:45.608Z,8.99
2018-09-23T22:12:14.043Z,8.94
2018-09-23T22:14:42.485Z,8.92
2018-09-23T22:17:10.897Z,8.93
2018-09-23T22:19:39.340Z,8.93
2018-09-23T22:22:07.762Z,8.93
2018-09-23T22:24:36.160Z,8.90
2018-09-23T22:27:04.630Z,8.89
2018-09-23T22:29:33.044Z,8.90
2018-09-23T22:32:01.464Z,8.90
2018-09-23T22:34:29.850Z,8.91
2018-09-23T22:36:58.310Z,8.92
2018-09-23T22:39:26.700Z,8.89
2018-09-23T22:41:55.159Z,8.88
2018-09-23T22:44:23.620Z,8.86
2018-09-23T22:46:52.009Z,8.88
2018-09-23T22:49:20.417Z,8.84
2018-09-23T22:51:48.815Z,8.79
2018-09-23T22:54:17.197Z,8.80
2018-09-23T22:56:45.585Z,8.74
2018-09-23T22:59:13.989Z,8.74
2018-09-23T23:01:42.398Z,8.69
2018-09-23T23:04:10.783Z,8.69
2018-09-23T23:06:39.223Z,8.65
2018-09-23T23:09:08.770Z,8.66
2018-09-23T23:11:37.243Z,8.67
2018-09-23T23:14:05.649Z,8.64
2018-09-23T23:16:34.066Z,8.67
2018-09-23T23:19:02.553Z,8.39
2018-09-23T23:21:31.015Z,8.64
2018-09-23T23:24:00.315Z,8.62
2018-09-23T23:26:28.720Z,8.61
2018-09-23T23:28:57.179Z,8.61
2018-09-23T23:31:25.557Z,8.55
2018-09-23T23:33:54.018Z,8.53
2018-09-23T23:36:22.391Z,8.52
2018-09-23T23:38:50.789Z,8.52
2018-09-23T23:41:19.184Z,8.49
2018-09-23T23:43:47.597Z,8.46
2018-09-23T23:46:16.069Z,8.46
2018-09-23T23:48:44.437Z,8.43
2018-09-23T23:51:12.876Z,8.44
2018-09-23T23:53:41.274Z,8.39
2018-09-23T23:56:09.710Z,8.41
2018-09-23T23:58:38.156Z,8.40
